createdAt,value
2024-02-24T00:00:32.445Z,20.50
2024-02-24T00:03:00.508Z,20.50
2024-02-24T00:05:28.489Z,20.50
2024-02-24T00:07:56.823Z,20.50
2024-02-24T00:10:24.806Z,20.50
2024-02-24T00:12:52.693Z,20.50
2024-02-24T00:15:22.071Z,20.50
2024-02-24T00:17:49.876Z,20.50
2024-02-24T00:20:17.766Z,20.40
2024-02-24T00:22:45.591Z,20.40
2024-02-24T00:25:13.376Z,20.40
2024-02-24T00:27:41.117Z,20.40
2024-02-24T00:30:10.721Z,20.40
2024-02-24T00:32:40.007Z,20.30
2024-02-24T00:35:08.546Z,20.30
2024-02-24T00:37:36.420Z,20.30
2024-02-24T00:40:04.474Z,20.30
2024-02-24T00:42:32.274Z,20.30
2024-02-24T00:45:00.142Z,20.30
2024-02-24T00:47:28.026Z,20.30
2024-02-24T00:49:57.213Z,20.30
2024-02-24T00:52:27.053Z,20.30
2024-02-24T00:54:55.105Z,20.30
2024-02-24T00:57:22.857Z,20.20
2024-02-24T00:59:50.646Z,20.20
2024-02-24T01:02:18.789Z,20.20
2024-02-24T01:04:46.724Z,20.20
2024-02-24T01:07:16.959Z,20.20
2024-02-24T01:09:44.955Z,20.10
2024-02-24T01:12:13.177Z,20.10
2024-02-24T01:14:41.049Z,20.10
2024-02-24T01:17:09.076Z,20.10
2024-02-24T01:19:37.522Z,20.10
2024-02-24T01:22:06.268Z,20.00
2024-02-24T01:24:35.406Z,20.00
2024-02-24T01:27:03.131Z,20.00
2024-02-24T01:29:30.917Z,20.00
2024-02-24T01:32:00.701Z,20.00
2024-02-24T01:34:28.586Z,20.00
2024-02-24T01:36:56.550Z,20.00
2024-02-24T01:39:24.476Z,20.00
2024-02-24T01:41:53.705Z,20.00
2024-02-24T01:44:21.491Z,20.00
2024-02-24T01:46:49.902Z,20.00
2024-02-24T01:49:18.217Z,20.00
2024-02-24T01:51:47.598Z,20.00
2024-02-24T01:54:15.780Z,19.90
2024-02-24T01:56:45.381Z,19.90
2024-02-24T01:59:14.600Z,19.90
2024-02-24T02:01:43.405Z,19.90
2024-02-24T02:04:11.311Z,19.90
2024-02-24T02:06:39.349Z,19.80
2024-02-24T02:09:08.073Z,19.80
2024-02-24T02:11:42.122Z,19.80
2024-02-24T02:14:17.502Z,19.80
2024-02-24T02:16:45.342Z,19.80
2024-02-24T02:19:13.326Z,19.80
2024-02-24T02:21:43.705Z,19.80
2024-02-24T02:24:12.896Z,19.80
2024-02-24T02:26:40.876Z,19.80
2024-02-24T02:29:08.790Z,19.80
2024-02-24T02:31:36.639Z,19.80
2024-02-24T02:34:04.836Z,19.80
2024-02-24T02:36:32.693Z,19.70
2024-02-24T02:39:00.687Z,19.70
2024-02-24T02:41:29.855Z,19.70
2024-02-24T02:43:57.638Z,19.70
2024-02-24T02:46:25.482Z,19.60
2024-02-24T02:48:53.665Z,19.60
2024-02-24T02:51:21.644Z,19.60
2024-02-24T02:53:49.437Z,19.60
2024-02-24T02:56:21.785Z,19.60
2024-02-24T02:58:50.943Z,19.60
2024-02-24T03:01:18.819Z,19.60
2024-02-24T03:03:46.636Z,19.60
2024-02-24T03:06:15.029Z,19.60
2024-02-24T03:08:42.971Z,19.60
2024-02-24T03:11:16.358Z,19.60
2024-02-24T03:13:44.203Z,19.60
2024-02-24T03:16:13.633Z,19.60
2024-02-24T03:18:44.431Z,19.50
2024-02-24T03:21:12.286Z,19.50
2024-02-24T03:23:40.206Z,19.50
2024-02-24T03:26:08.150Z,19.50
2024-02-24T03:28:36.012Z,19.50
2024-02-24T03:31:03.832Z,19.50
2024-02-24T03:33:33.023Z,19.50
2024-02-24T03:36:00.944Z,19.40
2024-02-24T03:38:28.851Z,19.40
2024-02-24T03:40:56.722Z,19.40
2024-02-24T03:43:24.549Z,19.40
2024-02-24T03:45:52.301Z,19.40
2024-02-24T03:48:20.223Z,19.40
2024-02-24T03:50:49.508Z,19.40
2024-02-24T03:53:17.296Z,19.40
2024-02-24T03:55:45.207Z,19.40
2024-02-24T03:58:14.065Z,19.40
2024-02-24T04:00:41.888Z,19.40
2024-02-24T04:03:09.695Z,19.40
2024-02-24T04:05:37.528Z,19.30
2024-02-24T04:08:07.483Z,19.30
2024-02-24T04:10:36.552Z,19.30
2024-02-24T04:13:04.579Z,19.30
2024-02-24T04:15:32.361Z,19.30
2024-02-24T04:18:00.336Z,19.30
2024-02-24T04:20:28.232Z,19.30
2024-02-24T04:22:56.023Z,19.30
2024-02-24T04:25:25.161Z,19.30
2024-02-24T04:27:52.895Z,19.30
2024-02-24T04:30:20.697Z,19.30
2024-02-24T04:32:48.534Z,19.30
2024-02-24T04:35:16.530Z,19.20
2024-02-24T04:37:44.393Z,19.20
2024-02-24T04:40:12.638Z,19.20
2024-02-24T04:42:41.752Z,19.20
2024-02-24T04:45:10.843Z,19.20
2024-02-24T04:47:38.861Z,19.10
2024-02-24T04:50:07.783Z,19.10
2024-02-24T04:52:35.627Z,19.10
2024-02-24T04:55:04.340Z,19.10
2024-02-24T04:57:32.342Z,19.10
2024-02-24T05:00:01.582Z,19.10
2024-02-24T05:02:29.644Z,19.10
2024-02-24T05:04:57.460Z,19.10
2024-02-24T05:07:25.836Z,19.10
2024-02-24T05:09:53.605Z,19.10
2024-02-24T05:12:21.463Z,19.10
2024-02-24T05:14:49.666Z,19.10
2024-02-24T05:17:18.854Z,19.10
2024-02-24T05:19:46.846Z,19.10
2024-02-24T05:22:14.642Z,19.10
2024-02-24T05:24:43.661Z,19.10
2024-02-24T05:27:11.683Z,19.10
2024-02-24T05:29:39.514Z,19.00
2024-02-24T05:32:07.933Z,19.00
2024-02-24T05:34:37.488Z,19.00
2024-02-24T05:37:05.479Z,19.00
2024-02-24T05:39:33.228Z,19.10
2024-02-24T05:42:00.973Z,19.10
2024-02-24T05:44:28.795Z,19.20
2024-02-24T05:46:56.597Z,19.30
2024-02-24T05:49:24.620Z,19.40
2024-02-24T05:51:54.547Z,19.40
2024-02-24T05:54:22.463Z,19.50
2024-02-24T05:56:50.303Z,19.60
2024-02-24T05:59:18.237Z,19.60
2024-02-24T06:01:46.035Z,19.70
2024-02-24T06:04:14.516Z,19.70
2024-02-24T06:06:44.275Z,19.80
2024-02-24T06:09:13.695Z,19.80
2024-02-24T06:11:41.643Z,19.80
2024-02-24T06:14:09.641Z,19.80
2024-02-24T06:16:37.513Z,19.90
2024-02-24T06:19:05.786Z,19.90
2024-02-24T06:21:33.939Z,19.90
2024-02-24T06:24:01.789Z,19.90
2024-02-24T06:26:31.162Z,19.90
2024-02-24T06:28:58.945Z,20.00
2024-02-24T06:31:27.778Z,20.00
2024-02-24T06:33:55.875Z,20.00
2024-02-24T06:36:23.803Z,20.00
2024-02-24T06:38:51.957Z,20.00
2024-02-24T06:41:20.770Z,20.10
2024-02-24T06:43:50.083Z,20.10
2024-02-24T06:46:17.837Z,20.10
2024-02-24T06:48:47.461Z,20.10
2024-02-24T06:51:22.402Z,20.10
2024-02-24T06:53:56.759Z,20.10
2024-02-24T06:56:29.043Z,20.10
2024-02-24T06:58:59.755Z,20.00
2024-02-24T07:01:36.068Z,20.00
2024-02-24T07:04:11.601Z,20.00
2024-02-24T07:06:39.489Z,20.00
2024-02-24T07:09:08.988Z,20.00
2024-02-24T07:11:37.493Z,20.00
2024-02-24T07:14:06.690Z,20.00
2024-02-24T07:16:38.003Z,20.00
2024-02-24T07:19:05.781Z,20.00
2024-02-24T07:21:33.584Z,20.00
2024-02-24T07:24:01.484Z,20.00
2024-02-24T07:26:29.594Z,20.00
2024-02-24T07:28:57.419Z,20.00
2024-02-24T07:31:26.784Z,20.00
2024-02-24T07:33:54.864Z,20.00
2024-02-24T07:36:22.754Z,20.00
2024-02-24T07:38:50.584Z,20.00
2024-02-24T07:41:18.577Z,20.00
2024-02-24T07:43:46.705Z,20.00
2024-02-24T07:46:21.247Z,20.00
2024-02-24T07:48:50.632Z,20.00
2024-02-24T07:51:18.676Z,20.00
2024-02-24T07:53:46.599Z,20.00
2024-02-24T07:56:14.644Z,20.00
2024-02-24T07:58:42.673Z,20.00
2024-02-24T08:01:11.276Z,20.00
2024-02-24T08:03:39.722Z,20.10
2024-02-24T08:06:09.564Z,20.10
2024-02-24T08:08:38.478Z,20.00
2024-02-24T08:11:08.625Z,20.10
2024-02-24T08:13:43.297Z,20.00
2024-02-24T08:16:11.757Z,20.10
2024-02-24T08:18:39.652Z,20.00
2024-02-24T08:21:09.957Z,20.00
2024-02-24T08:23:38.752Z,20.00
2024-02-24T08:26:06.702Z,20.00
2024-02-24T08:28:34.862Z,20.00
2024-02-24T08:31:02.853Z,20.10
2024-02-24T08:33:30.935Z,20.10
2024-02-24T08:35:59.434Z,20.00
2024-02-24T08:38:39.315Z,20.00
2024-02-24T08:41:07.957Z,20.00
2024-02-24T08:43:35.801Z,20.00
2024-02-24T08:46:04.630Z,20.00
2024-02-24T08:48:32.709Z,20.10
2024-02-24T08:51:00.660Z,20.10
2024-02-24T08:53:30.100Z,20.10
2024-02-24T08:56:01.678Z,20.20
2024-02-24T08:58:29.804Z,20.20
2024-02-24T09:00:58.890Z,20.20
2024-02-24T09:03:26.911Z,20.30
2024-02-24T09:05:56.230Z,20.30
2024-02-24T09:08:24.679Z,20.30
2024-02-24T09:10:54.078Z,20.30
2024-02-24T09:13:21.947Z,20.40
2024-02-24T09:15:49.849Z,20.40
2024-02-24T09:18:18.652Z,20.40
2024-02-24T09:20:47.085Z,20.40
2024-02-24T09:23:15.038Z,20.20
2024-02-24T09:25:42.815Z,19.90
2024-02-24T09:28:13.958Z,19.90
2024-02-24T09:30:41.972Z,20.00
2024-02-24T09:33:09.978Z,20.10
2024-02-24T09:35:38.005Z,20.10
2024-02-24T09:38:05.994Z,20.20
2024-02-24T09:40:33.834Z,20.20
2024-02-24T09:43:06.052Z,20.30
2024-02-24T09:45:43.037Z,20.40
2024-02-24T09:48:12.812Z,20.40
2024-02-24T09:50:41.986Z,20.40
2024-02-24T09:53:10.986Z,20.50
2024-02-24T09:55:39.163Z,20.50
2024-02-24T09:58:11.969Z,20.60
2024-02-24T10:00:41.067Z,20.60
2024-02-24T10:03:10.037Z,20.60
2024-02-24T10:05:41.157Z,20.70
2024-02-24T10:08:09.176Z,20.70
2024-02-24T10:10:38.908Z,20.70
2024-02-24T10:13:07.207Z,20.70
2024-02-24T10:15:36.867Z,20.60
2024-02-24T10:18:09.309Z,20.60
2024-02-24T10:20:37.231Z,20.60
2024-02-24T10:23:05.993Z,20.60
2024-02-24T10:25:34.059Z,20.60
2024-02-24T10:28:02.616Z,20.60
2024-02-24T10:30:30.794Z,20.60
2024-02-24T10:33:00.543Z,20.60
2024-02-24T10:35:30.051Z,20.60
2024-02-24T10:38:11.544Z,20.60
2024-02-24T10:40:47.122Z,20.60
2024-02-24T10:43:16.878Z,20.60
2024-02-24T10:45:44.927Z,20.60
2024-02-24T10:48:13.649Z,20.50
2024-02-24T10:50:46.272Z,20.50
2024-02-24T10:53:18.583Z,20.60
2024-02-24T10:55:46.923Z,20.70
2024-02-24T10:58:20.549Z,20.70
2024-02-24T11:00:55.132Z,20.70
2024-02-24T11:03:25.343Z,20.70
2024-02-24T11:05:56.158Z,20.60
2024-02-24T11:08:37.398Z,20.60
2024-02-24T11:11:10.364Z,20.60
2024-02-24T11:13:59.623Z,20.60
2024-02-24T11:16:36.938Z,20.70
2024-02-24T11:19:15.020Z,20.70
2024-02-24T11:22:05.057Z,20.70
2024-02-24T11:24:34.808Z,20.70
2024-02-24T11:27:03.528Z,20.70
2024-02-24T11:29:36.898Z,20.70
2024-02-24T11:32:17.992Z,20.70
2024-02-24T11:34:47.115Z,20.80
2024-02-24T11:37:20.185Z,20.80
2024-02-24T11:39:49.059Z,20.80
2024-02-24T11:42:17.034Z,20.70
2024-02-24T11:44:51.787Z,20.70
2024-02-24T11:47:20.437Z,20.60
2024-02-24T11:49:49.834Z,20.60
2024-02-24T11:52:19.612Z,20.70
2024-02-24T11:54:48.580Z,20.70
2024-02-24T11:57:16.606Z,20.80
2024-02-24T11:59:44.407Z,20.80
2024-02-24T12:02:17.749Z,20.90
2024-02-24T12:04:45.670Z,21.00
2024-02-24T12:07:13.871Z,21.10
2024-02-24T12:09:43.346Z,21.10
2024-02-24T12:12:11.634Z,21.10
2024-02-24T12:14:40.150Z,21.20
2024-02-24T12:17:07.965Z,21.20
2024-02-24T12:19:39.779Z,21.20
2024-02-24T12:22:11.223Z,21.20
2024-02-24T12:24:40.222Z,21.10
2024-02-24T12:27:11.789Z,21.10
2024-02-24T12:29:40.056Z,21.10
2024-02-24T12:32:09.581Z,21.00
2024-02-24T12:34:38.533Z,21.00
2024-02-24T12:37:08.546Z,21.00
2024-02-24T12:39:42.671Z,21.00
2024-02-24T12:42:11.882Z,20.90
2024-02-24T12:44:39.801Z,20.80
2024-02-24T12:47:08.033Z,20.80
2024-02-24T12:49:36.716Z,20.80
2024-02-24T12:52:06.078Z,20.80
2024-02-24T12:54:34.237Z,20.80
2024-02-24T12:57:02.148Z,20.80
2024-02-24T12:59:31.458Z,20.80
2024-02-24T13:02:00.287Z,20.90
2024-02-24T13:04:29.121Z,20.90
2024-02-24T13:06:57.645Z,20.90
2024-02-24T13:09:25.987Z,21.00
2024-02-24T13:12:10.313Z,21.00
2024-02-24T13:14:40.092Z,20.90
2024-02-24T13:17:07.914Z,20.90
2024-02-24T13:19:35.844Z,20.90
2024-02-24T13:22:06.047Z,20.90
2024-02-24T13:24:33.788Z,20.80
2024-02-24T13:27:02.144Z,20.90
2024-02-24T13:29:30.548Z,20.80
2024-02-24T13:31:59.843Z,20.80
2024-02-24T13:34:27.872Z,20.90
2024-02-24T13:36:55.752Z,20.80
2024-02-24T13:39:24.819Z,20.80
2024-02-24T13:41:55.212Z,20.80
2024-02-24T13:44:23.512Z,20.90
2024-02-24T13:46:51.725Z,20.80
2024-02-24T13:49:21.508Z,20.80
2024-02-24T13:51:49.589Z,20.80
2024-02-24T13:54:17.481Z,20.90
2024-02-24T13:56:45.473Z,20.90
2024-02-24T13:59:13.333Z,20.90
2024-02-24T14:01:41.422Z,20.90
2024-02-24T14:04:09.332Z,20.90
2024-02-24T14:06:39.278Z,20.90
2024-02-24T14:09:08.401Z,21.00
2024-02-24T14:11:36.897Z,20.90
2024-02-24T14:14:04.879Z,20.90
2024-02-24T14:16:33.687Z,20.80
2024-02-24T14:19:01.559Z,20.90
2024-02-24T14:21:29.440Z,20.90
2024-02-24T14:23:58.713Z,20.90
2024-02-24T14:26:26.638Z,20.90
2024-02-24T14:29:00.757Z,20.90
2024-02-24T14:31:31.433Z,20.90
2024-02-24T14:33:59.442Z,20.80
2024-02-24T14:36:27.407Z,20.80
2024-02-24T14:39:09.139Z,20.80
2024-02-24T14:41:36.940Z,20.80
2024-02-24T14:44:05.826Z,20.80
2024-02-24T14:46:33.666Z,20.80
2024-02-24T14:49:05.216Z,20.70
2024-02-24T14:51:33.514Z,20.70
2024-02-24T14:54:04.227Z,20.70
2024-02-24T14:56:34.227Z,20.70
2024-02-24T14:59:02.517Z,20.70
2024-02-24T15:01:30.979Z,20.70
2024-02-24T15:04:00.256Z,20.60
2024-02-24T15:06:28.293Z,20.60
2024-02-24T15:08:56.404Z,20.60
2024-02-24T15:11:26.682Z,20.60
2024-02-24T15:13:55.583Z,20.60
2024-02-24T15:16:23.661Z,20.60
2024-02-24T15:18:51.595Z,20.60
2024-02-24T15:21:19.664Z,20.60
2024-02-24T15:23:47.540Z,20.50
2024-02-24T15:26:15.651Z,20.60
2024-02-24T15:28:44.832Z,20.60
2024-02-24T15:31:18.023Z,20.60
2024-02-24T15:33:46.030Z,20.50
2024-02-24T15:36:14.505Z,20.50
2024-02-24T15:38:42.427Z,20.50
2024-02-24T15:41:10.930Z,20.50
2024-02-24T15:43:41.245Z,20.50
2024-02-24T15:46:10.325Z,20.50
2024-02-24T15:48:38.204Z,20.50
2024-02-24T15:51:08.351Z,20.50
2024-02-24T15:53:36.520Z,20.50
2024-02-24T15:56:04.968Z,20.50
2024-02-24T15:58:32.993Z,20.50
2024-02-24T16:01:00.773Z,20.50
2024-02-24T16:03:30.223Z,20.40
2024-02-24T16:05:58.093Z,20.40
2024-02-24T16:08:27.829Z,20.30
2024-02-24T16:10:55.653Z,20.30
2024-02-24T16:13:22.481Z,20.30
2024-02-24T16:15:50.926Z,20.40
2024-02-24T16:18:18.952Z,20.40
2024-02-24T16:20:48.389Z,20.40
2024-02-24T16:23:17.143Z,20.40
2024-02-24T16:25:45.156Z,20.40
2024-02-24T16:28:13.050Z,20.40
2024-02-24T16:30:40.890Z,20.50
2024-02-24T16:33:08.771Z,20.50
2024-02-24T16:35:36.803Z,20.50
2024-02-24T16:38:07.508Z,20.50
2024-02-24T16:40:35.269Z,20.50
2024-02-24T16:43:03.497Z,20.50
2024-02-24T16:45:31.524Z,20.50
2024-02-24T16:47:59.426Z,20.50
2024-02-24T16:50:27.510Z,20.50
2024-02-24T16:52:55.525Z,20.50
2024-02-24T16:55:24.965Z,20.50
2024-02-24T16:57:52.878Z,20.50
2024-02-24T17:00:33.462Z,20.50
2024-02-24T17:03:01.338Z,20.60
2024-02-24T17:05:29.391Z,20.60
2024-02-24T17:07:57.222Z,20.60
2024-02-24T17:10:26.320Z,20.60
2024-02-24T17:12:54.594Z,20.60
2024-02-24T17:15:22.497Z,20.60
2024-02-24T17:17:50.488Z,20.60
2024-02-24T17:20:19.966Z,20.50
2024-02-24T17:22:47.811Z,20.50
2024-02-24T17:25:16.751Z,20.50
2024-02-24T17:27:49.141Z,20.40
2024-02-24T17:30:18.569Z,20.40
2024-02-24T17:32:46.584Z,20.40
2024-02-24T17:35:30.899Z,20.40
2024-02-24T17:38:03.460Z,20.40
2024-02-24T17:40:34.965Z,20.40
2024-02-24T17:43:05.172Z,20.40
2024-02-24T17:45:32.907Z,20.40
2024-02-24T17:48:01.386Z,20.40
2024-02-24T17:50:29.261Z,20.40
2024-02-24T17:52:57.306Z,20.40
2024-02-24T17:55:25.437Z,20.50
2024-02-24T17:57:54.190Z,20.40
2024-02-24T18:00:24.007Z,20.50
2024-02-24T18:02:51.851Z,20.40
2024-02-24T18:05:20.638Z,20.50
2024-02-24T18:07:49.676Z,20.40
2024-02-24T18:10:18.026Z,20.50
2024-02-24T18:12:46.085Z,20.50
2024-02-24T18:15:14.266Z,20.50
2024-02-24T18:17:43.770Z,20.50
2024-02-24T18:20:12.904Z,20.50
2024-02-24T18:22:43.948Z,20.50
2024-02-24T18:25:13.492Z,20.50
2024-02-24T18:27:41.433Z,20.50
2024-02-24T18:30:10.094Z,20.50
2024-02-24T18:32:38.252Z,20.50
2024-02-24T18:35:08.782Z,20.50
2024-02-24T18:37:36.575Z,20.50
2024-02-24T18:40:06.040Z,20.50
2024-02-24T18:42:34.276Z,20.50
2024-02-24T18:45:02.172Z,20.50
2024-02-24T18:47:30.731Z,20.50
2024-02-24T18:49:59.465Z,20.50
2024-02-24T18:52:29.323Z,20.50
2024-02-24T18:54:57.294Z,20.50
2024-02-24T18:57:25.319Z,20.50
2024-02-24T18:59:54.354Z,20.50
2024-02-24T19:02:22.239Z,20.50
2024-02-24T19:04:51.889Z,20.60
2024-02-24T19:07:19.822Z,20.60
2024-02-24T19:09:49.156Z,20.60
2024-02-24T19:12:17.976Z,20.60
2024-02-24T19:14:52.147Z,20.60
2024-02-24T19:17:24.945Z,20.60
2024-02-24T19:19:53.723Z,20.60
2024-02-24T19:22:21.635Z,20.60
2024-02-24T19:24:50.704Z,20.70
2024-02-24T19:27:18.490Z,20.60
2024-02-24T19:29:46.367Z,20.60
2024-02-24T19:32:14.260Z,20.50
2024-02-24T19:34:42.118Z,20.50
2024-02-24T19:37:10.823Z,20.30
2024-02-24T19:39:38.933Z,20.20
2024-02-24T19:42:08.452Z,20.20
2024-02-24T19:44:38.252Z,20.20
2024-02-24T19:47:10.557Z,20.30
2024-02-24T19:49:38.679Z,20.30
2024-02-24T19:52:07.112Z,20.40
2024-02-24T19:54:35.060Z,20.40
2024-02-24T19:57:02.993Z,20.40
2024-02-24T19:59:32.491Z,20.40
2024-02-24T20:02:00.785Z,20.50
2024-02-24T20:04:31.061Z,20.50
2024-02-24T20:06:59.156Z,20.50
2024-02-24T20:09:27.293Z,20.50
2024-02-24T20:11:55.135Z,20.50
2024-02-24T20:14:23.791Z,20.50
2024-02-24T20:16:53.034Z,20.50
2024-02-24T20:19:20.949Z,20.50
2024-02-24T20:21:48.788Z,20.50
2024-02-24T20:24:16.742Z,20.50
2024-02-24T20:26:44.613Z,20.50
2024-02-24T20:29:12.683Z,20.60
2024-02-24T20:31:40.892Z,20.50
2024-02-24T20:34:10.256Z,20.50
2024-02-24T20:36:38.250Z,20.50
2024-02-24T20:39:07.181Z,20.50
2024-02-24T20:41:40.859Z,20.50
2024-02-24T20:44:08.749Z,20.50
2024-02-24T20:46:42.916Z,20.50
2024-02-24T20:49:12.180Z,20.50
2024-02-24T20:51:40.477Z,20.50
2024-02-24T20:54:08.431Z,20.50
2024-02-24T20:56:36.657Z,20.40
2024-02-24T20:59:04.868Z,20.50
2024-02-24T21:01:33.325Z,20.40
2024-02-24T21:04:01.263Z,20.50
2024-02-24T21:06:30.413Z,20.50
2024-02-24T21:08:58.227Z,20.40
2024-02-24T21:11:26.149Z,20.50
2024-02-24T21:13:54.048Z,20.40
2024-02-24T21:16:22.059Z,20.40
2024-02-24T21:18:50.623Z,20.50
2024-02-24T21:21:18.504Z,20.40
2024-02-24T21:23:48.667Z,20.40
2024-02-24T21:26:16.358Z,20.40
2024-02-24T21:28:44.097Z,20.40
2024-02-24T21:31:11.835Z,20.40
2024-02-24T21:33:40.003Z,20.40
2024-02-24T21:36:08.573Z,20.30
2024-02-24T21:38:36.380Z,20.30
2024-02-24T21:41:05.840Z,20.30
2024-02-24T21:43:33.587Z,20.30
2024-02-24T21:46:01.495Z,20.40
2024-02-24T21:48:29.623Z,20.30
2024-02-24T21:50:58.681Z,20.30
2024-02-24T21:53:26.506Z,20.30
2024-02-24T21:55:54.439Z,20.30
2024-02-24T21:58:23.651Z,20.30
2024-02-24T22:00:52.382Z,20.30
2024-02-24T22:03:20.210Z,20.30
2024-02-24T22:05:48.050Z,20.30
2024-02-24T22:08:15.835Z,20.30
2024-02-24T22:10:43.776Z,20.30
2024-02-24T22:13:11.846Z,20.30
2024-02-24T22:15:41.306Z,20.30
2024-02-24T22:18:09.401Z,20.30
2024-02-24T22:20:37.254Z,20.30
2024-02-24T22:23:05.217Z,20.30
2024-02-24T22:25:33.002Z,20.20
2024-02-24T22:28:00.779Z,20.20
2024-02-24T22:30:28.606Z,20.20
2024-02-24T22:32:57.895Z,20.10
2024-02-24T22:35:26.078Z,20.10
2024-02-24T22:37:53.832Z,20.10
2024-02-24T22:40:21.583Z,20.00
2024-02-24T22:42:49.327Z,20.00
2024-02-24T22:45:18.557Z,20.00
2024-02-24T22:47:48.500Z,19.90
2024-02-24T22:50:18.088Z,19.90
2024-02-24T22:52:45.861Z,19.80
2024-02-24T22:55:13.747Z,19.80
2024-02-24T22:57:41.674Z,19.80
2024-02-24T23:00:14.187Z,19.70
2024-02-24T23:02:42.254Z,19.70
2024-02-24T23:05:10.481Z,19.60
2024-02-24T23:07:39.664Z,19.60
2024-02-24T23:10:09.813Z,19.60
2024-02-24T23:12:38.559Z,19.50
2024-02-24T23:15:07.300Z,19.50
2024-02-24T23:17:35.209Z,19.50
2024-02-24T23:20:03.025Z,19.40
2024-02-24T23:22:30.791Z,19.40
2024-02-24T23:25:00.510Z,19.40
2024-02-24T23:27:28.262Z,19.40
2024-02-24T23:29:56.041Z,19.40
2024-02-24T23:32:23.924Z,19.40
2024-02-24T23:34:51.986Z,19.30
2024-02-24T23:37:19.807Z,19.30
2024-02-24T23:39:47.621Z,19.30
2024-02-24T23:42:18.392Z,19.30
2024-02-24T23:44:46.264Z,19.20
2024-02-24T23:47:14.214Z,19.20
2024-02-24T23:49:43.033Z,19.20
2024-02-24T23:52:10.845Z,19.10
2024-02-24T23:54:38.619Z,19.10
2024-02-24T23:57:06.687Z,19.10
2024-02-24T23:59:35.844Z,19.10
